Time;durP1;ratioP1;P1;durP2;ratioP2;P2;SDS_P1;SDS_P2;PMS_P1;PMS_P2;Temp;Humidity;BMP_temperature;BMP_pressure;BME280_temperature;BME280_humidity;BME280_pressure;Samples;Min_cycle;Max_cycle;Signal;HPM_P1;HPM_P2
2021/10/18 00:00:14;;;;;;;16.92;9.63;;;;;;;-144.51;100.00;69251.94;4880672;29;19916;-66
2021/10/18 00:02:59;;;;;;;15.02;10.07;;;;;;;-144.51;100.00;69251.94;4886654;29;20493;-66
2021/10/18 00:05:44;;;;;;;12.18;7.32;;;;;;;-144.51;100.00;69251.94;4880627;29;20045;-66
2021/10/18 00:08:29;;;;;;;10.73;7.25;;;;;;;-144.51;100.00;69251.94;4880469;29;20049;-66
2021/10/18 00:11:14;;;;;;;17.83;9.48;;;;;;;-144.51;100.00;69251.94;4880214;29;20045;-66
2021/10/18 00:13:59;;;;;;;12.45;7.00;;;;;;;-144.51;100.00;69251.94;4880428;29;20516;-66
2021/10/18 00:16:44;;;;;;;11.52;6.65;;;;;;;-144.51;100.00;69251.94;4886529;29;20408;-66
2021/10/18 00:19:29;;;;;;;11.88;6.80;;;;;;;-144.51;100.00;69251.94;4898869;29;20440;-66
2021/10/18 00:22:14;;;;;;;14.50;7.68;;;;;;;-144.51;100.00;69251.94;4898852;29;20049;-67
2021/10/18 00:24:59;;;;;;;12.00;7.43;;;;;;;-144.51;100.00;69251.94;4880296;29;20057;-67
2021/10/18 00:27:45;;;;;;;16.73;10.48;;;;;;;-144.51;100.00;69251.94;4880093;29;20493;-67
2021/10/18 00:30:30;;;;;;;15.82;8.18;;;;;;;-144.51;100.00;69251.94;4880136;29;20044;-67
2021/10/18 00:33:15;;;;;;;21.35;8.50;;;;;;;-144.51;100.00;69251.94;4882722;29;20045;-65
2021/10/18 00:35:59;;;;;;;18.58;10.73;;;;;;;-144.51;100.00;69251.94;4924094;23;20053;-77
2021/10/18 00:38:44;;;;;;;17.25;8.07;;;;;;;-144.51;100.00;69251.94;4908170;29;20577;-77
2021/10/18 00:41:29;;;;;;;14.50;7.60;;;;;;;-144.51;100.00;69251.94;4912779;29;20494;-77
2021/10/18 00:44:15;;;;;;;14.80;8.25;;;;;;;-144.51;100.00;69251.94;4911412;29;20044;-77
2021/10/18 00:47:01;;;;;;;19.25;11.07;;;;;;;-144.51;100.00;69251.94;4914210;29;20048;-78
2021/10/18 00:49:46;;;;;;;23.50;11.07;;;;;;;-144.51;100.00;69251.94;4914965;29;20055;-78
2021/10/18 00:52:33;;;;;;;18.10;9.20;;;;;;;-144.51;100.00;69251.94;4915109;29;20456;-77
2021/10/18 00:55:18;;;;;;;19.02;12.10;;;;;;;-144.51;100.00;69251.94;4913884;29;20505;-78
2021/10/18 00:58:03;;;;;;;20.80;11.50;;;;;;;-144.51;100.00;69251.94;4914765;29;20043;-78
2021/10/18 01:00:49;;;;;;;15.35;9.02;;;;;;;-144.51;100.00;69251.94;4898121;29;20052;-78
2021/10/18 01:03:36;;;;;;;28.83;11.00;;;;;;;-144.51;100.00;69251.94;4886986;29;20036;-78
2021/10/18 01:06:21;;;;;;;18.85;10.90;;;;;;;-144.51;100.00;69251.94;4891305;29;20052;-77
2021/10/18 01:09:05;;;;;;;14.32;8.25;;;;;;;-144.51;100.00;69251.94;4916463;29;20489;-77
2021/10/18 01:11:50;;;;;;;;;;;;;;;-144.51;100.00;69251.94;4901460;29;20048;-77
2021/10/18 01:14:35;;;;;;;16.67;9.45;;;;;;;-144.51;100.00;69251.94;4898521;29;20376;-76
2021/10/18 01:17:20;;;;;;;16.48;9.32;;;;;;;-144.51;100.00;69251.94;4909739;29;20036;-76
2021/10/18 01:20:10;;;;;;;12.07;6.95;;;;;;;-144.51;100.00;69251.94;4916297;29;20040;-78
2021/10/18 01:22:54;;;;;;;21.05;9.93;;;;;;;-144.51;100.00;69251.94;4916023;29;20048;-78
2021/10/18 01:25:40;;;;;;;16.88;8.25;;;;;;;-144.51;100.00;69251.94;4915302;29;20040;-78
2021/10/18 01:28:25;;;;;;;16.13;9.07;;;;;;;-144.51;100.00;69251.94;4908674;29;20425;-79
2021/10/18 01:31:10;;;;;;;12.73;7.80;;;;;;;-144.51;100.00;69251.94;4906919;29;20047;-78
2021/10/18 01:33:55;;;;;;;11.32;7.57;;;;;;;-144.51;100.00;69251.94;4918205;29;20044;-77
2021/10/18 01:36:39;;;;;;;16.90;10.23;;;;;;;-144.51;100.00;69251.94;4910364;29;20043;-76
2021/10/18 01:39:25;;;;;;;11.95;7.85;;;;;;;-144.51;100.00;69251.94;4899363;29;20052;-79
2021/10/18 01:42:10;;;;;;;17.88;9.40;;;;;;;-144.51;100.00;69251.94;4914382;29;20048;-75
2021/10/18 01:44:54;;;;;;;15.07;8.15;;;;;;;-144.51;100.00;69251.94;4912409;29;20497;-76
2021/10/18 01:47:39;;;;;;;16.20;9.53;;;;;;;-144.51;100.00;69251.94;4919618;29;20048;-76
2021/10/18 01:50:25;;;;;;;11.80;7.35;;;;;;;-144.51;100.00;69251.94;4912772;29;20288;-76
2021/10/18 01:53:10;;;;;;;14.68;8.95;;;;;;;-144.51;100.00;69251.94;4912584;29;20044;-76
2021/10/18 01:55:55;;;;;;;13.27;9.32;;;;;;;-144.51;100.00;69251.94;4909594;29;20048;-76
2021/10/18 01:58:40;;;;;;;9.95;5.88;;;;;;;-144.51;100.00;69251.94;4915565;29;20048;-76
2021/10/18 02:01:25;;;;;;;14.20;8.32;;;;;;;-144.51;100.00;69251.94;4913597;29;20044;-77
2021/10/18 02:04:10;;;;;;;;;;;;;;;-144.51;100.00;69251.94;4912608;29;20049;-76
2021/10/18 02:06:54;;;;;;;20.23;8.70;;;;;;;-144.51;100.00;69251.94;4900098;29;19915;-76
2021/10/18 02:09:39;;;;;;;8.68;6.28;;;;;;;-144.51;100.00;69251.94;4915206;29;20048;-76
2021/10/18 02:12:24;;;;;;;10.15;6.55;;;;;;;-144.51;100.00;69251.94;4908751;29;20048;-76
2021/10/18 02:15:10;;;;;;;12.07;7.73;;;;;;;-144.51;100.00;69251.94;4913310;29;20413;-76
2021/10/18 02:17:55;;;;;;;13.25;7.82;;;;;;;-144.51;100.00;69251.94;4916559;29;20040;-78
2021/10/18 02:20:40;;;;;;;17.60;5.82;;;;;;;-144.51;100.00;69251.94;4914524;29;20048;-76
2021/10/18 02:23:29;;;;;;;10.45;6.57;;;;;;;-144.51;100.00;69251.94;4911129;29;20048;-76
2021/10/18 02:26:13;;;;;;;13.75;8.48;;;;;;;-144.51;100.00;69251.94;4913568;29;20044;-76
2021/10/18 02:28:58;;;;;;;10.60;6.82;;;;;;;-144.51;100.00;69251.94;4914148;29;20056;-76
2021/10/18 02:31:43;;;;;;;9.52;5.95;;;;;;;-144.51;100.00;69251.94;4914672;29;20052;-77
2021/10/18 02:34:28;;;;;;;15.25;9.25;;;;;;;-144.51;100.00;69251.94;4905942;29;20040;-76
2021/10/18 02:37:12;;;;;;;14.75;7.82;;;;;;;-144.51;100.00;69251.94;4913728;29;20036;-76
2021/10/18 02:40:02;;;;;;;14.60;8.00;;;;;;;-144.51;100.00;69251.94;4908839;29;20520;-77
2021/10/18 02:42:48;;;;;;;17.20;8.40;;;;;;;-144.51;100.00;69251.94;4902289;29;20048;-77
2021/10/18 02:45:35;;;;;;;15.50;7.65;;;;;;;-144.51;100.00;69251.94;4907222;29;20501;-77
2021/10/18 02:48:20;;;;;;;9.70;6.38;;;;;;;-144.51;100.00;69251.94;4918568;29;20052;-78
2021/10/18 02:51:05;;;;;;;12.07;8.25;;;;;;;-144.51;100.00;69251.94;4915220;29;20408;-78
2021/10/18 02:53:50;;;;;;;13.18;6.88;;;;;;;-144.51;100.00;69251.94;4913110;29;20036;-76
2021/10/18 02:56:37;;;;;;;16.17;8.73;;;;;;;-144.51;100.00;69251.94;4914403;29;20040;-78
2021/10/18 02:59:22;;;;;;;9.95;5.55;;;;;;;-144.51;100.00;69251.94;4908405;29;20498;-79
2021/10/18 03:02:08;;;;;;;11.52;6.40;;;;;;;-144.51;100.00;69251.94;4897312;29;20052;-77
2021/10/18 03:04:52;;;;;;;11.90;7.35;;;;;;;-144.51;100.00;69251.94;4914790;29;20048;-78
2021/10/18 03:07:37;;;;;;;13.40;8.03;;;;;;;-144.51;100.00;69251.94;4911026;29;20056;-76
2021/10/18 03:10:22;;;;;;;11.88;6.30;;;;;;;-144.51;100.00;69251.94;4906483;29;20288;-77
2021/10/18 03:13:08;;;;;;;12.00;6.97;;;;;;;-144.51;100.00;69251.94;4901146;29;20040;-77
2021/10/18 03:15:52;;;;;;;13.13;7.55;;;;;;;-144.51;100.00;69251.94;4912110;29;20044;-76
2021/10/18 03:18:37;;;;;;;12.60;7.18;;;;;;;-144.51;100.00;69251.94;4909442;29;20052;-76
2021/10/18 03:21:22;;;;;;;11.60;6.72;;;;;;;-144.51;100.00;69251.94;4905922;29;20043;-77
2021/10/18 03:24:07;;;;;;;11.68;6.95;;;;;;;-144.51;100.00;69251.94;4918286;29;20052;-76
2021/10/18 03:26:53;;;;;;;12.63;7.05;;;;;;;-144.51;100.00;69251.94;4914177;29;20048;-78
2021/10/18 03:29:40;;;;;;;11.98;7.93;;;;;;;-144.51;100.00;69251.94;4903267;29;20064;-76
2021/10/18 03:32:25;;;;;;;9.40;6.05;;;;;;;-144.51;100.00;69251.94;4911591;29;20518;-76
2021/10/18 03:35:09;;;;;;;10.57;6.28;;;;;;;-144.51;100.00;69251.94;4907299;29;20052;-76
2021/10/18 03:37:54;;;;;;;9.25;6.22;;;;;;;-144.51;100.00;69251.94;4922099;29;20052;-78
2021/10/18 03:40:43;;;;;;;11.32;7.93;;;;;;;-144.51;100.00;69251.94;4916983;29;20437;-78
2021/10/18 03:43:28;;;;;;;12.45;6.40;;;;;;;-144.51;100.00;69251.94;4917809;29;20052;-77
2021/10/18 03:46:13;;;;;;;12.20;6.32;;;;;;;-144.51;100.00;69251.94;4915939;29;20051;-78
2021/10/18 03:48:58;;;;;;;11.73;6.63;;;;;;;-144.51;100.00;69251.94;4917803;29;20045;-78
2021/10/18 03:51:43;;;;;;;9.02;5.57;;;;;;;-144.51;100.00;69251.94;4918996;29;20519;-78
2021/10/18 03:54:27;;;;;;;12.57;7.68;;;;;;;-144.51;100.00;69251.94;4912235;29;20028;-78
2021/10/18 03:57:12;;;;;;;14.93;8.82;;;;;;;-144.51;100.00;69251.94;4903752;29;20498;-77
2021/10/18 03:59:56;;;;;;;10.30;6.60;;;;;;;-144.51;100.00;69251.94;4917601;29;20052;-77
2021/10/18 04:02:41;;;;;;;14.13;7.87;;;;;;;-144.51;100.00;69251.94;4912278;29;20469;-77
2021/10/18 04:05:26;;;;;;;10.48;6.05;;;;;;;-144.51;100.00;69251.94;4910114;29;20421;-76
2021/10/18 04:08:10;;;;;;;15.85;7.38;;;;;;;-144.51;100.00;69251.94;4918943;29;20044;-77
2021/10/18 04:10:55;;;;;;;11.23;5.85;;;;;;;-144.51;100.00;69251.94;4902671;29;20044;-76
2021/10/18 04:13:40;;;;;;;14.80;7.77;;;;;;;-144.51;100.00;69251.94;4906167;29;20044;-76
2021/10/18 04:16:25;;;;;;;11.25;7.15;;;;;;;-144.51;100.00;69251.94;4917399;29;20040;-75
2021/10/18 04:19:09;;;;;;;16.45;6.90;;;;;;;-144.51;100.00;69251.94;4916881;29;20044;-76
2021/10/18 04:21:54;;;;;;;11.10;6.53;;;;;;;-144.51;100.00;69251.94;4914712;29;20048;-76
2021/10/18 04:24:39;;;;;;;10.50;6.82;;;;;;;-144.51;100.00;69251.94;4904788;29;20420;-76
2021/10/18 04:27:24;;;;;;;15.85;9.07;;;;;;;-144.51;100.00;69251.94;4908574;29;20040;-76
2021/10/18 04:30:09;;;;;;;39.67;25.38;;;;;;;-144.51;100.00;69251.94;4917126;29;20052;-77
2021/10/18 04:32:56;;;;;;;23.02;13.10;;;;;;;-144.51;100.00;69251.94;4914742;29;20040;-77
2021/10/18 04:35:40;;;;;;;15.68;9.60;;;;;;;-144.51;100.00;69251.94;4915913;29;20056;-76
2021/10/18 04:38:25;;;;;;;11.05;6.93;;;;;;;-144.51;100.00;69251.94;4905162;29;20501;-76
2021/10/18 04:41:10;;;;;;;14.70;9.52;;;;;;;-144.51;100.00;69251.94;4904542;29;20048;-76
2021/10/18 04:43:55;;;;;;;17.67;9.33;;;;;;;-144.51;100.00;69251.94;4905567;29;20040;-76
2021/10/18 04:46:39;;;;;;;16.38;7.55;;;;;;;-144.51;100.00;69251.94;4909175;29;20672;-77
2021/10/18 04:49:24;;;;;;;13.80;6.85;;;;;;;-144.51;100.00;69251.94;4908884;29;20493;-76
2021/10/18 04:52:09;;;;;;;16.98;7.50;;;;;;;-144.51;100.00;69251.94;4907024;29;20055;-75
2021/10/18 04:54:53;;;;;;;16.03;7.33;;;;;;;-144.51;100.00;69251.94;4914226;29;20044;-78
2021/10/18 04:57:54;;;;;;;13.60;7.97;;;;;;;-144.51;100.00;69251.94;4912423;29;20285;-76
2021/10/18 05:00:43;;;;;;;14.45;7.70;;;;;;;-144.51;100.00;69251.94;4911517;29;20044;-78
2021/10/18 05:03:28;;;;;;;13.73;8.88;;;;;;;-144.51;100.00;69251.94;4908614;29;20433;-76
2021/10/18 05:06:13;;;;;;;11.98;7.97;;;;;;;-144.51;100.00;69251.94;4914715;29;20044;-78
2021/10/18 05:08:58;;;;;;;13.25;7.43;;;;;;;-144.51;100.00;69251.94;4901769;29;20044;-77
2021/10/18 05:11:42;;;;;;;19.23;9.05;;;;;;;-144.51;100.00;69251.94;4901112;29;20052;-77
2021/10/18 05:14:27;;;;;;;15.70;7.87;;;;;;;-144.51;100.00;69251.94;4908623;29;20040;-77
2021/10/18 05:17:12;;;;;;;11.38;6.18;;;;;;;-144.51;100.00;69251.94;4897081;29;20296;-77
2021/10/18 05:19:56;;;;;;;13.82;7.45;;;;;;;-144.51;100.00;69251.94;4909219;29;20040;-77
2021/10/18 05:22:41;;;;;;;11.38;7.47;;;;;;;-144.51;100.00;69251.94;4900673;29;20052;-76
2021/10/18 05:25:28;;;;;;;16.25;5.88;;;;;;;-144.51;100.00;69251.94;4910071;29;20409;-77
2021/10/18 05:28:13;;;;;;;17.63;7.53;;;;;;;-144.51;100.00;69251.94;4911235;29;20048;-77
2021/10/18 05:30:57;;;;;;;11.50;7.03;;;;;;;-144.51;100.00;69251.94;4912159;29;20052;-77
2021/10/18 05:33:42;;;;;;;13.38;6.28;;;;;;;-144.51;100.00;69251.94;4905242;29;20048;-76
2021/10/18 05:36:27;;;;;;;13.15;7.22;;;;;;;-144.51;100.00;69251.94;4914660;29;20498;-77
2021/10/18 05:39:11;;;;;;;21.30;6.50;;;;;;;-144.51;100.00;69251.94;4906562;29;20052;-77
2021/10/18 05:41:55;;;;;;;14.35;5.88;;;;;;;-144.51;100.00;69251.94;4895269;29;20049;-77
2021/10/18 05:44:40;;;;;;;13.65;7.38;;;;;;;-144.51;100.00;69251.94;4902981;29;20506;-77
2021/10/18 05:47:24;;;;;;;22.30;6.38;;;;;;;-144.51;100.00;69251.94;4898006;29;20506;-78
2021/10/18 05:50:09;;;;;;;22.48;6.43;;;;;;;-144.51;100.00;69251.94;4918472;29;20505;-77
2021/10/18 05:52:55;;;;;;;17.57;8.13;;;;;;;-144.51;100.00;69251.94;4915816;29;20436;-78
2021/10/18 05:55:40;;;;;;;12.55;7.53;;;;;;;-144.51;100.00;69251.94;4917396;29;20280;-77
2021/10/18 05:58:25;;;;;;;14.43;7.78;;;;;;;-144.51;100.00;69251.94;4915050;29;20048;-78
2021/10/18 06:01:09;;;;;;;17.40;7.43;;;;;;;-144.51;100.00;69251.94;4914714;29;20040;-78
2021/10/18 06:03:54;;;;;;;20.17;7.82;;;;;;;-144.51;100.00;69251.94;4912132;29;20048;-77
2021/10/18 06:06:39;;;;;;;11.32;6.22;;;;;;;-144.51;100.00;69251.94;4894522;29;20040;-78
2021/10/18 06:09:24;;;;;;;10.35;6.55;;;;;;;-144.51;100.00;69251.94;4899066;29;20498;-77
2021/10/18 06:12:08;;;;;;;14.07;7.93;;;;;;;-144.51;100.00;69251.94;4892956;29;20501;-76
2021/10/18 06:14:53;;;;;;;15.02;8.43;;;;;;;-144.51;100.00;69251.94;4913852;29;20044;-78
2021/10/18 06:17:39;;;;;;;9.60;4.80;;;;;;;-144.51;100.00;69251.94;4918999;29;20036;-76
2021/10/18 06:20:24;;;;;;;19.42;8.52;;;;;;;-144.51;100.00;69251.94;4903564;29;20052;-78
2021/10/18 06:23:09;;;;;;;25.13;8.77;;;;;;;-144.51;100.00;69251.94;4915389;29;20115;-77
2021/10/18 06:25:53;;;;;;;20.48;8.45;;;;;;;-144.51;100.00;69251.94;4914086;29;20048;-77
2021/10/18 06:28:41;;;;;;;26.98;8.07;;;;;;;-144.51;100.00;69251.94;4917741;29;20044;-78
2021/10/18 06:31:26;;;;;;;18.35;8.43;;;;;;;-144.51;100.00;69251.94;4915407;29;20044;-78
2021/10/18 06:34:11;;;;;;;36.65;7.82;;;;;;;-144.51;100.00;69251.94;4905911;29;20494;-78
2021/10/18 06:36:56;;;;;;;29.80;9.13;;;;;;;-144.51;100.00;69251.94;4945917;23;20040;-67
2021/10/18 06:39:41;;;;;;;18.95;8.02;;;;;;;-144.51;100.00;69251.94;4915599;29;20052;-67
2021/10/18 06:42:26;;;;;;;25.27;8.57;;;;;;;-144.51;100.00;69251.94;4915724;29;20056;-67
2021/10/18 06:45:10;;;;;;;16.45;7.95;;;;;;;-144.51;100.00;69251.94;4915556;29;20048;-67
2021/10/18 06:47:55;;;;;;;16.02;8.60;;;;;;;-144.51;100.00;69251.94;4915700;29;20052;-67
2021/10/18 06:50:43;;;;;;;16.30;7.22;;;;;;;-144.51;100.00;69251.94;4915664;29;20439;-67
2021/10/18 06:53:33;;;;;;;19.83;9.70;;;;;;;-144.51;100.00;69251.94;4915679;29;20048;-68
2021/10/18 06:56:18;;;;;;;24.80;10.32;;;;;;;-144.51;100.00;69251.94;4915576;29;20048;-67
2021/10/18 06:59:03;;;;;;;15.40;6.97;;;;;;;-144.51;100.00;69251.94;4919407;29;20052;-65
2021/10/18 07:01:48;;;;;;;30.83;8.32;;;;;;;-144.51;100.00;69251.94;4919290;29;20048;-67
2021/10/18 07:04:35;;;;;;;19.67;7.88;;;;;;;-144.51;100.00;69251.94;4924646;29;20339;-68
2021/10/18 07:07:21;;;;;;;30.23;10.63;;;;;;;-144.51;100.00;69251.94;4919060;29;20044;-68
2021/10/18 07:10:07;;;;;;;24.70;10.93;;;;;;;-144.51;100.00;69251.94;4918997;29;20052;-67
2021/10/18 07:12:52;;;;;;;37.60;10.05;;;;;;;-144.51;100.00;69251.94;4918972;29;20048;-67
2021/10/18 07:15:37;;;;;;;;;;;;;;;-144.51;100.00;69251.94;4919340;29;20403;-68
2021/10/18 07:18:22;;;;;;;26.75;10.55;;;;;;;-144.51;100.00;69251.94;4919501;29;20283;-69
2021/10/18 07:21:07;;;;;;;18.52;9.00;;;;;;;-144.51;100.00;69251.94;4918991;29;20044;-69
2021/10/18 07:23:54;;;;;;;27.75;8.88;;;;;;;-144.51;100.00;69251.94;4924169;29;20040;-69
2021/10/18 07:26:39;;;;;;;35.90;13.82;;;;;;;-144.51;100.00;69251.94;4918798;29;20436;-69
2021/10/18 07:29:24;;;;;;;20.80;8.77;;;;;;;-144.51;100.00;69251.94;4920855;29;20044;-69
2021/10/18 07:32:10;;;;;;;37.67;16.48;;;;;;;-144.51;100.00;69251.94;4918843;29;20047;-69
2021/10/18 07:34:56;;;;;;;22.90;10.52;;;;;;;-144.51;100.00;69251.94;4924267;29;20036;-69
2021/10/18 07:37:45;;;;;;;36.75;13.85;;;;;;;-144.51;100.00;69251.94;4918597;29;20044;-68
2021/10/18 07:40:31;;;;;;;29.83;12.38;;;;;;;-144.51;100.00;69251.94;4918497;29;20052;-69
2021/10/18 07:43:16;;;;;;;27.67;11.98;;;;;;;-144.51;100.00;69251.94;4917573;29;20419;-70
2021/10/18 07:46:01;;;;;;;18.75;10.02;;;;;;;-144.51;100.00;69251.94;4924734;29;20040;-69
2021/10/18 08:05:16;;;;;;;18.25;11.50;;;;;;;-144.51;100.00;69251.94;4926664;29;20476;-62
2021/10/18 08:08:03;;;;;;;20.98;10.75;;;;;;;-144.51;100.00;69251.94;4920194;29;20060;-62
2021/10/18 08:10:51;;;;;;;28.45;12.07;;;;;;;-144.51;100.00;69251.94;4919643;29;20048;-62
2021/10/18 08:13:37;;;;;;;19.67;10.77;;;;;;;-144.51;100.00;69251.94;4920138;29;20048;-62
2021/10/18 08:16:21;;;;;;;23.08;12.20;;;;;;;-144.51;100.00;69251.94;4920173;29;20047;-62
2021/10/18 08:19:06;;;;;;;17.92;8.48;;;;;;;-144.51;100.00;69251.94;4920140;29;20048;-62
2021/10/18 08:21:51;;;;;;;27.90;11.57;;;;;;;-144.51;100.00;69251.94;4919925;29;20052;-62
2021/10/18 08:24:36;;;;;;;;;;;;;;;-144.51;100.00;69251.94;4919839;29;20408;-62
2021/10/18 08:27:21;;;;;;;20.27;10.45;;;;;;;-144.51;100.00;69251.94;4920116;29;19919;-62
2021/10/18 08:30:07;;;;;;;;;;;;;;;-144.51;100.00;69251.94;4920353;29;20071;-62
2021/10/18 08:32:51;;;;;;;;;;;;;;;-144.51;100.00;69251.94;4920175;29;19914;-62
2021/10/18 08:35:36;;;;;;;23.00;11.93;;;;;;;-144.51;100.00;69251.94;4919565;29;19914;-62
2021/10/18 08:44:19;;;;;;;21.77;11.68;;;;;;;-144.51;100.00;69251.94;4920088;29;20048;-62
2021/10/18 08:47:04;;;;;;;28.00;13.10;;;;;;;-144.51;100.00;69251.94;4919508;29;20515;-62
2021/10/18 08:49:50;;;;;;;21.92;13.15;;;;;;;-144.51;100.00;69251.94;4919721;29;20056;-62
2021/10/18 08:52:35;;;;;;;22.33;10.63;;;;;;;-144.51;100.00;69251.94;4919314;29;20040;-62
2021/10/18 08:55:20;;;;;;;27.25;13.73;;;;;;;-144.51;100.00;69251.94;4919417;29;20048;-63
2021/10/18 08:58:06;;;;;;;19.40;10.82;;;;;;;-144.51;100.00;69251.94;4919158;29;20044;-62
2021/10/18 09:00:51;;;;;;;32.75;14.93;;;;;;;-144.51;100.00;69251.94;4918948;29;20048;-62
2021/10/18 09:03:36;;;;;;;23.88;11.00;;;;;;;-144.51;100.00;69251.94;4919400;29;20052;-65
2021/10/18 09:06:22;;;;;;;18.13;10.30;;;;;;;-144.51;100.00;69251.94;4917543;29;20044;-62
2021/10/18 09:09:08;;;;;;;29.50;15.65;;;;;;;-144.51;100.00;69251.94;4922840;29;20044;-62
2021/10/18 09:11:58;;;;;;;30.80;14.05;;;;;;;-144.51;100.00;69251.94;4912709;29;20044;-62
2021/10/18 09:14:43;;;;;;;21.40;11.52;;;;;;;-144.51;100.00;69251.94;4920432;29;20040;-63
2021/10/18 09:17:33;;;;;;;33.70;13.43;;;;;;;-144.51;100.00;69251.94;4925345;29;20048;-62
2021/10/18 09:20:29;;;;;;;28.05;14.45;;;;;;;-144.51;100.00;69251.94;4923109;29;20044;-62
2021/10/18 09:23:31;;;;;;;19.50;10.18;;;;;;;-144.51;100.00;69251.94;4933979;29;20043;-62
2021/10/18 09:26:16;;;;;;;33.67;13.82;;;;;;;-144.51;100.00;69251.94;4931982;29;20032;-62
2021/10/18 09:29:10;;;;;;;20.45;11.52;;;;;;;-144.51;100.00;69251.94;4944471;29;20047;-62
2021/10/18 09:32:02;;;;;;;33.00;16.75;;;;;;;-144.51;100.00;69251.94;4941690;29;20043;-64
2021/10/18 09:34:48;;;;;;;28.85;15.68;;;;;;;-144.51;100.00;69251.94;4922779;29;20040;-64
2021/10/18 09:37:41;;;;;;;30.63;13.82;;;;;;;-144.51;100.00;69251.94;4922440;29;20044;-64
2021/10/18 09:40:34;;;;;;;26.80;14.75;;;;;;;-144.51;100.00;69251.94;4922117;29;20048;-64
2021/10/18 10:56:45;;;;;;;29.65;13.73;;;;;;;-144.51;100.00;69251.94;4920333;29;20484;-63
2021/10/18 10:59:33;;;;;;;21.92;13.40;;;;;;;-144.51;100.00;69251.94;4926851;29;20040;-63
2021/10/18 11:02:30;;;;;;;24.17;13.27;;;;;;;-144.51;100.00;69251.94;4927306;29;20052;-63
2021/10/18 11:05:27;;;;;;;21.45;11.88;;;;;;;-144.51;100.00;69251.94;4927095;29;20044;-63
2021/10/18 11:08:38;;;;;;;21.30;13.15;;;;;;;-144.51;100.00;69251.94;4927028;29;20048;-64
2021/10/18 11:11:24;;;;;;;26.67;13.35;;;;;;;-144.51;100.00;69251.94;4921047;29;20484;-64
2021/10/18 11:14:08;;;;;;;23.10;12.73;;;;;;;-144.51;100.00;69251.94;4908769;29;20408;-63
2021/10/18 11:16:53;;;;;;;16.50;10.50;;;;;;;-144.51;100.00;69251.94;4913649;29;20114;-63
2021/10/18 11:19:39;;;;;;;33.72;13.50;;;;;;;-144.51;100.00;69251.94;4926899;29;20048;-63
2021/10/18 11:22:35;;;;;;;22.88;13.02;;;;;;;-144.51;100.00;69251.94;4918670;29;20048;-63
2021/10/18 11:25:22;;;;;;;36.45;13.93;;;;;;;-144.51;100.00;69251.94;4931896;29;20032;-63
2021/10/18 11:28:09;;;;;;;29.38;13.63;;;;;;;-144.51;100.00;69251.94;4916981;29;20060;-63
2021/10/18 11:31:00;;;;;;;31.45;14.13;;;;;;;-144.51;100.00;69251.94;4923973;29;20044;-63
2021/10/18 11:34:04;;;;;;;20.20;12.55;;;;;;;-144.51;100.00;69251.94;4920132;29;20040;-64
2021/10/18 11:36:50;;;;;;;21.10;12.43;;;;;;;-144.51;100.00;69251.94;4914552;29;20041;-63
2021/10/18 11:39:35;;;;;;;25.58;14.45;;;;;;;-144.51;100.00;69251.94;4925606;29;20040;-63
2021/10/18 11:42:20;;;;;;;;;;;;;;;-144.51;100.00;69251.94;4914277;29;20040;-63
2021/10/18 11:45:05;;;;;;;22.60;13.07;;;;;;;-144.51;100.00;69251.94;4918680;29;19915;-63
2021/10/18 11:47:51;;;;;;;26.25;12.65;;;;;;;-144.51;100.00;69251.94;4926284;29;20048;-63
2021/10/18 11:50:37;;;;;;;24.13;12.98;;;;;;;-144.51;100.00;69251.94;4912969;29;20048;-63
2021/10/18 11:53:24;;;;;;;23.92;12.15;;;;;;;-144.51;100.00;69251.94;4925056;29;20040;-63
2021/10/18 11:56:18;;;;;;;23.92;12.75;;;;;;;-144.51;100.00;69251.94;4923986;29;20040;-63
2021/10/18 11:59:05;;;;;;;23.30;13.48;;;;;;;-144.51;100.00;69251.94;4926146;29;20039;-63
2021/10/18 12:01:50;;;;;;;19.23;12.73;;;;;;;-144.51;100.00;69251.94;4926759;29;20056;-63
2021/10/18 12:04:54;;;;;;;20.27;12.00;;;;;;;-144.51;100.00;69251.94;4927094;29;20033;-62
2021/10/18 12:07:42;;;;;;;17.85;12.35;;;;;;;-144.51;100.00;69251.94;4919932;29;20048;-63
2021/10/18 12:10:29;;;;;;;20.30;11.77;;;;;;;-144.51;100.00;69251.94;4919175;29;20040;-62
2021/10/18 12:13:29;;;;;;;18.95;11.02;;;;;;;-144.51;100.00;69251.94;4917929;29;20056;-63
2021/10/18 12:16:22;;;;;;;16.58;9.98;;;;;;;-144.51;100.00;69251.94;4928464;29;20044;-63
2021/10/18 12:19:07;;;;;;;17.85;9.80;;;;;;;-144.51;100.00;69251.94;4925969;29;20052;-63
2021/10/18 12:21:52;;;;;;;15.98;10.35;;;;;;;-144.51;100.00;69251.94;4926366;29;20044;-62
2021/10/18 12:24:37;;;;;;;16.88;10.70;;;;;;;-144.51;100.00;69251.94;4916544;29;20499;-63
2021/10/18 12:27:26;;;;;;;18.13;10.95;;;;;;;-144.51;100.00;69251.94;4909545;29;20428;-62
2021/10/18 12:30:38;;;;;;;18.67;11.25;;;;;;;-144.51;100.00;69251.94;4920204;29;20048;-62
2021/10/18 12:33:33;;;;;;;12.95;9.10;;;;;;;-144.51;100.00;69251.94;4914377;29;20040;-63
2021/10/18 12:36:18;;;;;;;16.83;9.63;;;;;;;-144.51;100.00;69251.94;4924368;29;20052;-62
2021/10/18 12:39:03;;;;;;;15.73;10.38;;;;;;;-144.51;100.00;69251.94;4928509;29;20527;-63
2021/10/18 12:41:48;;;;;;;16.42;9.68;;;;;;;-144.51;100.00;69251.94;4925518;29;20040;-62
2021/10/18 12:44:39;;;;;;;19.65;11.07;;;;;;;-144.51;100.00;69251.94;4924965;29;20412;-63
2021/10/18 12:47:24;;;;;;;12.57;9.10;;;;;;;-144.51;100.00;69251.94;4917916;29;20052;-63
2021/10/18 12:50:15;;;;;;;16.48;11.68;;;;;;;-144.51;100.00;69251.94;4925211;29;20508;-62
2021/10/18 12:53:05;;;;;;;14.02;8.25;;;;;;;-144.51;100.00;69251.94;4924148;29;20044;-68
2021/10/18 12:55:50;;;;;;;20.27;11.40;;;;;;;-144.51;100.00;69251.94;4920436;29;20033;-63
2021/10/18 12:58:37;;;;;;;14.68;10.98;;;;;;;-144.51;100.00;69251.94;4911323;29;20053;-63
2021/10/18 13:01:22;;;;;;;20.83;10.93;;;;;;;-144.51;100.00;69251.94;4919228;23;20712;-64
2021/10/18 13:04:19;;;;;;;22.20;11.18;;;;;;;-144.51;100.00;69251.94;4887588;29;20484;-64
2021/10/18 13:07:04;;;;;;;19.35;11.43;;;;;;;-144.51;100.00;69251.94;4895370;29;20045;-64
2021/10/18 13:09:49;;;;;;;19.77;11.40;;;;;;;-144.51;100.00;69251.94;4896992;29;20045;-64
2021/10/18 13:12:36;;;;;;;16.45;11.65;;;;;;;-144.51;100.00;69251.94;4897993;29;20048;-63
2021/10/18 13:15:21;;;;;;;21.35;11.93;;;;;;;-144.51;100.00;69251.94;4894909;29;20048;-63
2021/10/18 13:18:08;;;;;;;21.65;12.48;;;;;;;-144.51;100.00;69251.94;4897664;29;20048;-63
2021/10/18 13:20:58;;;;;;;20.95;11.30;;;;;;;-144.51;100.00;69251.94;4896508;29;20052;-63
2021/10/18 13:23:43;;;;;;;24.02;12.98;;;;;;;-144.51;100.00;69251.94;4889085;29;20045;-63
2021/10/18 13:26:28;;;;;;;23.40;11.90;;;;;;;-144.51;100.00;69251.94;4877516;29;20044;-63
2021/10/18 13:29:13;;;;;;;20.48;11.13;;;;;;;-144.51;100.00;69251.94;4878443;29;20041;-63
2021/10/18 13:31:58;;;;;;;20.88;11.98;;;;;;;-144.51;100.00;69251.94;4878655;29;20049;-64
2021/10/18 13:34:44;;;;;;;18.50;12.07;;;;;;;-144.51;100.00;69251.94;4878988;29;20401;-63
2021/10/18 13:37:28;;;;;;;24.95;11.45;;;;;;;-144.51;100.00;69251.94;4880877;29;20045;-63
2021/10/18 13:40:15;;;;;;;26.40;12.13;;;;;;;-144.51;100.00;69251.94;4878518;29;20504;-63
2021/10/18 13:43:00;;;;;;;19.95;12.45;;;;;;;-144.51;100.00;69251.94;4878614;29;20052;-63
2021/10/18 13:45:46;;;;;;;16.10;10.07;;;;;;;-144.51;100.00;69251.94;4878327;29;20049;-63
2021/10/18 13:48:30;;;;;;;18.88;11.68;;;;;;;-144.51;100.00;69251.94;4878433;29;20049;-63
2021/10/18 13:51:15;;;;;;;26.33;12.02;;;;;;;-144.51;100.00;69251.94;4878521;29;20040;-63
2021/10/18 13:54:01;;;;;;;18.85;11.40;;;;;;;-144.51;100.00;69251.94;4878681;29;20057;-63
2021/10/18 13:56:46;;;;;;;14.93;10.35;;;;;;;-144.51;100.00;69251.94;4878246;29;20045;-63
2021/10/18 13:59:34;;;;;;;15.98;10.93;;;;;;;-144.51;100.00;69251.94;4880184;29;20049;-62